createdAt,value
2019-03-18T00:00:41.474Z,3.40
2019-03-18T00:03:33.293Z,4.67
2019-03-18T00:06:22.244Z,3.20
2019-03-18T00:09:25.492Z,3.97
2019-03-18T00:12:15.902Z,3.60
2019-03-18T00:15:03.735Z,3.23
2019-03-18T00:17:52.482Z,3.77
2019-03-18T00:20:42.357Z,4.37
2019-03-18T00:23:33.969Z,3.70
2019-03-18T00:26:21.999Z,3.10
2019-03-18T00:29:12.645Z,4.33
2019-03-18T00:31:59.190Z,3.83
2019-03-18T00:34:49.165Z,3.50
2019-03-18T00:37:55.100Z,2.47
2019-03-18T00:40:42.825Z,4.07
2019-03-18T00:43:38.410Z,3.93
2019-03-18T00:47:04.109Z,5.93
2019-03-18T00:49:58.193Z,3.67
2019-03-18T00:52:50.043Z,5.10
2019-03-18T00:55:41.691Z,4.30
2019-03-18T01:02:00.770Z,6.23
2019-03-18T01:04:48.698Z,3.80
2019-03-18T01:07:56.252Z,5.13
2019-03-18T01:10:47.172Z,5.37
2019-03-18T01:13:35.100Z,4.10
2019-03-18T01:16:23.285Z,5.47
2019-03-18T01:22:10.830Z,4.50
2019-03-18T01:25:00.370Z,3.93
2019-03-18T01:27:51.935Z,6.07
2019-03-18T01:30:41.710Z,5.13
2019-03-18T01:33:49.289Z,4.07
2019-03-18T01:36:40.287Z,4.33
2019-03-18T01:39:28.240Z,4.00
2019-03-18T01:42:17.270Z,4.57
2019-03-18T01:45:05.811Z,3.60
2019-03-18T01:47:53.338Z,5.10
2019-03-18T01:50:56.613Z,4.77
2019-03-18T01:53:48.736Z,5.73
2019-03-18T01:56:41.682Z,5.57
2019-03-18T01:59:38.414Z,6.57
2019-03-18T02:06:08.403Z,7.30
2019-03-18T02:09:03.502Z,6.83
2019-03-18T02:11:51.424Z,4.57
2019-03-18T02:17:42.023Z,4.83
2019-03-18T02:20:29.548Z,5.97
2019-03-18T02:23:17.774Z,5.67
2019-03-18T02:26:05.771Z,5.23
2019-03-18T02:29:08.880Z,4.63
2019-03-18T02:32:05.928Z,5.57
2019-03-18T02:38:06.448Z,4.97
2019-03-18T02:40:54.995Z,4.40
2019-03-18T02:43:51.787Z,5.40
2019-03-18T02:46:42.969Z,3.87
2019-03-18T02:49:34.737Z,4.63
2019-03-18T02:52:27.263Z,5.87
2019-03-18T02:55:18.131Z,6.37
2019-03-18T02:58:18.990Z,5.80
2019-03-18T03:01:28.068Z,5.03
2019-03-18T03:04:55.737Z,6.07
2019-03-18T03:07:43.769Z,4.07
2019-03-18T03:10:33.332Z,4.33
2019-03-18T03:13:27.813Z,6.07
2019-03-18T03:16:26.636Z,5.40
2019-03-18T03:19:08.885Z,5.03
2019-03-18T03:22:00.089Z,4.87
2019-03-18T03:24:53.957Z,4.47
2019-03-18T03:27:43.268Z,5.17
2019-03-18T03:30:31.350Z,6.70
2019-03-18T03:33:19.381Z,5.37
2019-03-18T03:36:29.844Z,6.73
2019-03-18T03:39:21.933Z,5.97
2019-03-18T03:42:09.884Z,5.53
2019-03-18T03:48:19.806Z,6.60
2019-03-18T03:51:16.009Z,6.53
2019-03-18T03:54:10.179Z,4.77
2019-03-18T04:00:32.310Z,4.50
2019-03-18T04:03:37.251Z,6.10
2019-03-18T04:06:19.483Z,6.83
2019-03-18T04:09:14.425Z,5.97
2019-03-18T04:12:01.703Z,6.20
2019-03-18T04:21:34.699Z,6.63
2019-03-18T04:24:31.596Z,6.37
2019-03-18T04:27:25.909Z,5.50
2019-03-18T04:30:15.596Z,5.57
2019-03-18T04:33:04.421Z,5.13
2019-03-18T04:36:05.055Z,4.77
2019-03-18T04:38:54.707Z,5.37
2019-03-18T04:41:43.664Z,6.77
2019-03-18T04:44:41.420Z,4.23
2019-03-18T04:47:29.452Z,5.97
2019-03-18T04:50:19.118Z,5.37
2019-03-18T04:53:07.835Z,4.67
2019-03-18T04:56:02.473Z,7.67
2019-03-18T04:58:45.464Z,7.47
2019-03-18T05:01:33.190Z,6.57
2019-03-18T05:04:30.020Z,4.63
2019-03-18T05:07:18.564Z,5.03
2019-03-18T05:10:06.236Z,5.50
2019-03-18T05:13:14.249Z,4.10
2019-03-18T05:16:19.808Z,3.97
2019-03-18T05:19:14.184Z,6.83
2019-03-18T05:22:04.843Z,6.00
2019-03-18T05:24:52.802Z,4.43
2019-03-18T05:27:40.816Z,5.23
2019-03-18T05:30:35.006Z,4.50
2019-03-18T05:33:26.301Z,4.67
2019-03-18T05:36:14.755Z,3.70
2019-03-18T05:39:02.767Z,2.60
2019-03-18T05:41:57.837Z,5.10
2019-03-18T05:44:45.805Z,4.17
2019-03-18T05:47:39.973Z,3.67
2019-03-18T05:50:28.726Z,4.57
2019-03-18T05:53:17.267Z,4.40
2019-03-18T05:56:09.982Z,5.50
2019-03-18T05:58:56.811Z,5.10
2019-03-18T06:01:54.021Z,7.13
2019-03-18T06:04:42.313Z,7.00
2019-03-18T06:07:30.830Z,4.70
2019-03-18T06:10:18.658Z,5.63
2019-03-18T06:13:06.597Z,4.80
2019-03-18T06:15:54.825Z,5.70
2019-03-18T06:18:50.428Z,3.63
2019-03-18T06:25:14.522Z,3.53
2019-03-18T06:28:03.152Z,2.63
2019-03-18T06:30:50.855Z,5.17
2019-03-18T06:33:38.837Z,3.53
2019-03-18T06:36:27.327Z,3.83
2019-03-18T06:39:23.135Z,4.40
2019-03-18T06:42:14.587Z,4.17
2019-03-18T06:45:09.739Z,3.27
2019-03-18T06:51:14.449Z,3.47
2019-03-18T06:54:02.992Z,4.50
2019-03-18T06:56:51.233Z,4.47
2019-03-18T06:59:42.027Z,3.87
2019-03-18T07:02:49.813Z,5.93
2019-03-18T07:05:40.466Z,3.87
2019-03-18T07:08:28.737Z,5.77
2019-03-18T07:11:16.671Z,3.80
2019-03-18T07:14:04.802Z,4.27
2019-03-18T07:17:00.479Z,4.07
2019-03-18T07:19:48.839Z,4.13
2019-03-18T07:22:37.388Z,5.57
2019-03-18T07:25:25.082Z,4.40
2019-03-18T07:28:13.451Z,5.50
2019-03-18T07:31:21.951Z,4.00
2019-03-18T07:34:19.125Z,4.37
2019-03-18T07:37:07.020Z,3.70
2019-03-18T07:39:55.709Z,4.07
2019-03-18T07:42:43.257Z,5.20
2019-03-18T07:45:31.318Z,5.23
2019-03-18T07:48:30.208Z,5.97
2019-03-18T07:51:08.611Z,4.10
2019-03-18T07:54:00.020Z,3.87
2019-03-18T07:56:51.312Z,4.67
2019-03-18T08:00:07.451Z,6.47
2019-03-18T08:02:54.913Z,4.33
2019-03-18T08:08:48.136Z,4.57
2019-03-18T08:11:35.891Z,3.23
2019-03-18T08:14:24.743Z,4.13
2019-03-18T08:17:45.577Z,3.17
2019-03-18T08:20:33.860Z,4.07
2019-03-18T08:23:23.889Z,3.70
2019-03-18T08:26:15.089Z,3.63
2019-03-18T08:29:08.907Z,3.30
2019-03-18T08:31:57.499Z,2.53
2019-03-18T08:34:45.171Z,3.60
2019-03-18T08:40:47.742Z,3.47
2019-03-18T08:43:39.353Z,4.33
2019-03-18T08:46:46.212Z,5.57
2019-03-18T08:52:29.850Z,2.87
2019-03-18T08:55:28.175Z,4.07
2019-03-18T08:58:24.221Z,3.73
2019-03-18T09:01:11.646Z,2.90
2019-03-18T09:04:18.795Z,3.07
2019-03-18T09:07:07.360Z,3.20
2019-03-18T09:10:27.895Z,2.10
2019-03-18T09:13:18.111Z,3.57
2019-03-18T09:16:06.454Z,3.77
2019-03-18T09:18:54.993Z,2.20
2019-03-18T09:21:46.277Z,1.97
2019-03-18T09:24:34.836Z,2.13
2019-03-18T09:30:29.814Z,1.80
2019-03-18T09:33:24.284Z,1.57
2019-03-18T09:39:29.442Z,1.57
2019-03-18T09:42:37.534Z,1.53
2019-03-18T09:45:25.869Z,2.40
2019-03-18T09:48:13.899Z,1.00
2019-03-18T09:51:02.544Z,0.77
2019-03-18T09:54:23.910Z,1.23
2019-03-18T09:57:12.376Z,1.70
2019-03-18T10:00:06.067Z,1.30
2019-03-18T10:02:53.760Z,2.27
2019-03-18T10:05:50.878Z,1.30
2019-03-18T10:08:39.341Z,1.77
2019-03-18T10:11:27.270Z,2.50
2019-03-18T10:14:15.603Z,2.10
2019-03-18T10:17:09.659Z,3.33
2019-03-18T10:19:53.686Z,3.33
2019-03-18T10:22:42.263Z,1.50
2019-03-18T10:25:30.851Z,3.27
2019-03-18T10:28:42.809Z,2.03
2019-03-18T10:31:25.696Z,2.60
2019-03-18T10:34:32.660Z,2.33
2019-03-18T10:37:21.714Z,2.33
2019-03-18T10:40:10.057Z,2.97
2019-03-18T10:43:15.583Z,2.70
2019-03-18T10:45:54.182Z,3.23
2019-03-18T10:48:45.199Z,2.90
2019-03-18T10:51:50.522Z,4.93
2019-03-18T10:54:38.646Z,3.33
2019-03-18T10:57:39.466Z,3.80
2019-03-18T11:03:33.965Z,2.73
2019-03-18T11:06:23.735Z,3.00
2019-03-18T11:09:30.699Z,2.97
2019-03-18T11:12:18.834Z,2.57
2019-03-18T11:15:07.662Z,2.00
2019-03-18T11:17:55.629Z,3.63
2019-03-18T11:24:14.044Z,3.77
2019-03-18T11:27:01.734Z,3.67
2019-03-18T11:29:49.899Z,2.73
2019-03-18T11:32:43.202Z,4.00
2019-03-18T11:35:31.795Z,3.87
2019-03-18T11:38:20.060Z,4.03
2019-03-18T11:41:07.792Z,2.23
2019-03-18T11:44:04.803Z,2.97
2019-03-18T11:46:52.689Z,2.80
2019-03-18T11:49:40.244Z,2.53
2019-03-18T11:52:29.092Z,2.73
2019-03-18T11:55:17.118Z,2.40
2019-03-18T11:58:05.463Z,3.13
2019-03-18T12:01:11.810Z,2.70
2019-03-18T12:04:00.916Z,5.97
2019-03-18T12:09:50.822Z,2.20
2019-03-18T12:12:38.672Z,2.60
2019-03-18T12:15:26.888Z,2.30
2019-03-18T12:18:17.703Z,2.43
2019-03-18T12:21:07.065Z,2.33
2019-03-18T12:23:55.198Z,1.77
2019-03-18T12:26:43.946Z,2.50
2019-03-18T12:29:33.046Z,2.83
2019-03-18T12:32:42.678Z,4.77
2019-03-18T12:35:30.551Z,3.43
2019-03-18T12:38:24.930Z,3.40
2019-03-18T12:41:12.742Z,2.53
2019-03-18T12:47:54.213Z,2.43
2019-03-18T12:50:55.287Z,1.80
2019-03-18T12:53:31.494Z,2.07
2019-03-18T12:56:23.217Z,2.23
2019-03-18T12:59:11.345Z,2.77
2019-03-18T13:01:59.281Z,1.77
2019-03-18T13:04:47.310Z,2.23
2019-03-18T13:07:47.418Z,2.10
2019-03-18T13:10:48.953Z,2.13
2019-03-18T13:13:37.091Z,1.87
2019-03-18T13:16:44.023Z,2.43
2019-03-18T13:19:32.107Z,2.20
2019-03-18T13:22:21.126Z,1.93
2019-03-18T13:28:25.759Z,1.23
2019-03-18T13:31:13.992Z,1.43
2019-03-18T13:34:01.819Z,1.20
2019-03-18T13:36:49.600Z,1.27
2019-03-18T13:39:53.410Z,2.40
2019-03-18T13:46:07.512Z,1.67
2019-03-18T13:48:55.699Z,1.10
2019-03-18T13:51:44.550Z,0.90
2019-03-18T13:54:32.574Z,2.50
2019-03-18T13:57:24.206Z,1.03
2019-03-18T14:00:13.158Z,2.30
2019-03-18T14:03:04.862Z,0.97
2019-03-18T14:05:59.754Z,3.13
2019-03-18T14:08:47.365Z,2.40
2019-03-18T14:11:36.836Z,2.00
2019-03-18T14:14:29.374Z,2.37
2019-03-18T14:17:14.340Z,1.20
2019-03-18T14:23:02.571Z,1.17
2019-03-18T14:29:34.715Z,1.33
2019-03-18T14:32:22.651Z,1.30
2019-03-18T14:35:10.570Z,0.90
2019-03-18T14:38:22.650Z,2.63
2019-03-18T14:44:58.174Z,0.57
2019-03-18T14:47:47.360Z,0.37
2019-03-18T14:50:35.663Z,0.97
2019-03-18T14:53:26.667Z,0.17
2019-03-18T14:56:14.642Z,0.63
2019-03-18T14:59:06.226Z,0.10
2019-03-18T15:01:54.523Z,0.83
2019-03-18T15:05:04.086Z,0.20
2019-03-18T15:07:53.532Z,0.43
2019-03-18T15:10:59.991Z,0.20
2019-03-18T15:13:51.333Z,1.10
2019-03-18T15:16:42.963Z,0.20
2019-03-18T15:19:33.491Z,1.20
2019-03-18T15:22:23.415Z,0.30
2019-03-18T15:25:13.344Z,0.23
2019-03-18T15:28:01.214Z,0.17
2019-03-18T15:30:52.421Z,0.17
2019-03-18T15:33:56.096Z,0.20
2019-03-18T15:36:41.539Z,0.20
2019-03-18T15:39:30.185Z,0.10
2019-03-18T15:42:40.109Z,0.20
2019-03-18T15:45:38.275Z,0.20
2019-03-18T15:48:47.450Z,0.10
2019-03-18T15:51:35.356Z,1.03
2019-03-18T15:54:27.032Z,0.30
2019-03-18T15:57:28.928Z,0.17
2019-03-18T16:00:14.144Z,0.40
2019-03-18T16:07:03.079Z,0.47
2019-03-18T16:09:57.445Z,0.63
2019-03-18T16:15:41.455Z,0.30
2019-03-18T16:18:30.725Z,0.60
2019-03-18T16:21:24.927Z,0.20
2019-03-18T16:24:48.253Z,0.40
2019-03-18T16:27:36.016Z,0.53
2019-03-18T16:30:29.619Z,0.40
2019-03-18T16:36:33.438Z,0.20
2019-03-18T16:39:21.124Z,1.63
2019-03-18T16:42:12.060Z,0.20
2019-03-18T16:45:21.455Z,0.20
2019-03-18T16:48:08.880Z,0.20
2019-03-18T16:51:23.404Z,0.30
2019-03-18T16:54:18.320Z,0.20
2019-03-18T16:57:09.083Z,0.30
2019-03-18T17:00:32.182Z,0.17
2019-03-18T17:03:45.372Z,0.77
2019-03-18T17:06:40.696Z,0.60
2019-03-18T17:12:45.895Z,0.33
2019-03-18T17:15:34.621Z,0.30
2019-03-18T17:18:38.928Z,0.50
2019-03-18T17:21:28.593Z,1.33
2019-03-18T17:24:16.524Z,0.70
2019-03-18T17:27:04.653Z,0.50
2019-03-18T17:29:52.169Z,0.47
2019-03-18T17:32:52.281Z,0.27
2019-03-18T17:35:57.766Z,1.17
2019-03-18T17:39:09.779Z,0.40
2019-03-18T17:42:03.946Z,0.97
2019-03-18T17:44:47.029Z,0.30
2019-03-18T17:47:35.417Z,0.30
2019-03-18T17:50:23.722Z,0.43
2019-03-18T17:53:11.612Z,0.30
2019-03-18T17:55:59.541Z,1.03
2019-03-18T17:58:47.328Z,0.73
2019-03-18T18:01:34.783Z,0.40
2019-03-18T18:04:34.729Z,0.40
2019-03-18T18:07:22.177Z,0.93
2019-03-18T18:10:10.490Z,0.10
2019-03-18T18:12:58.307Z,0.40
2019-03-18T18:15:45.992Z,3.43
2019-03-18T18:18:33.571Z,0.73
2019-03-18T18:21:20.872Z,0.70
2019-03-18T18:24:08.706Z,0.40
2019-03-18T18:26:56.219Z,0.30
2019-03-18T18:29:44.284Z,0.20
2019-03-18T18:32:31.553Z,0.57
2019-03-18T18:35:20.019Z,0.50
2019-03-18T18:38:07.462Z,1.27
2019-03-18T18:40:55.088Z,0.23
2019-03-18T18:43:42.886Z,0.43
2019-03-18T18:46:30.735Z,0.10
2019-03-18T18:49:18.287Z,0.37
2019-03-18T18:52:05.759Z,2.63
2019-03-18T18:54:53.522Z,0.83
2019-03-18T18:57:41.664Z,0.10
2019-03-18T19:00:29.436Z,0.10
2019-03-18T19:03:16.455Z,0.43
2019-03-18T19:06:04.170Z,0.40
2019-03-18T19:08:52.001Z,0.20
2019-03-18T19:11:40.124Z,0.20
2019-03-18T19:14:29.638Z,0.30
2019-03-18T19:17:17.440Z,0.30
2019-03-18T19:20:07.359Z,0.60
2019-03-18T19:22:55.914Z,0.50
2019-03-18T19:25:48.740Z,0.40
2019-03-18T19:28:59.807Z,0.77
2019-03-18T19:31:48.319Z,0.50
2019-03-18T19:49:04.531Z,0.90
2019-03-18T19:51:57.399Z,0.47
2019-03-18T19:54:47.720Z,1.53
2019-03-18T19:57:37.107Z,0.40
2019-03-18T20:00:30.668Z,0.40
2019-03-18T20:04:06.035Z,0.20
2019-03-18T20:06:54.479Z,0.50
2019-03-18T20:09:44.909Z,0.40
2019-03-18T20:12:32.943Z,1.90
2019-03-18T20:15:28.543Z,0.30
2019-03-18T20:28:34.416Z,0.40
2019-03-18T20:31:47.874Z,0.43
2019-03-18T20:34:56.066Z,0.20
2019-03-18T20:37:43.864Z,0.57
2019-03-18T20:40:37.930Z,0.40
2019-03-18T20:43:30.248Z,0.67
2019-03-18T20:50:16.145Z,0.50
2019-03-18T20:53:26.899Z,0.73
2019-03-18T20:56:15.033Z,0.60
2019-03-18T20:59:28.112Z,0.50
2019-03-18T21:02:18.823Z,0.63
2019-03-18T21:08:35.892Z,0.73
2019-03-18T21:11:24.158Z,0.40
2019-03-18T21:17:27.850Z,0.63
2019-03-18T21:23:27.659Z,0.70
2019-03-18T21:29:43.113Z,0.60
2019-03-18T21:32:34.622Z,0.50
2019-03-18T21:41:58.180Z,1.03
2019-03-18T21:45:03.912Z,0.80
2019-03-18T21:47:28.763Z,0.50
2019-03-18T21:47:53.715Z,0.60
2019-03-18T21:50:42.814Z,0.50
2019-03-18T21:57:30.133Z,0.60
2019-03-18T22:00:19.565Z,0.50
2019-03-18T22:07:27.372Z,0.53
2019-03-18T22:09:38.023Z,0.70
2019-03-18T22:12:26.055Z,0.53
2019-03-18T22:15:15.146Z,0.50
2019-03-18T22:18:57.224Z,0.60
2019-03-18T22:21:48.277Z,1.17
2019-03-18T22:24:45.233Z,0.63
2019-03-18T22:27:33.003Z,0.40
2019-03-18T22:33:56.111Z,1.17
2019-03-18T22:36:44.412Z,0.40
2019-03-18T22:39:33.766Z,0.70
2019-03-18T22:46:00.788Z,1.23
2019-03-18T22:52:25.981Z,0.93
2019-03-18T22:58:32.748Z,0.73
2019-03-18T23:01:56.980Z,0.57
2019-03-18T23:05:33.946Z,0.57
2019-03-18T23:08:30.266Z,0.80
2019-03-18T23:11:25.561Z,0.53
2019-03-18T23:14:16.565Z,0.50
2019-03-18T23:17:24.242Z,0.87
2019-03-18T23:20:12.679Z,0.63
2019-03-18T23:23:13.198Z,1.43
2019-03-18T23:26:08.291Z,1.17
2019-03-18T23:29:18.699Z,0.70
2019-03-18T23:32:05.128Z,0.63
2019-03-18T23:34:53.764Z,0.60
2019-03-18T23:37:45.900Z,0.60
2019-03-18T23:40:34.511Z,1.17
2019-03-18T23:43:22.775Z,0.60
2019-03-18T23:49:22.379Z,0.90
2019-03-18T23:55:46.302Z,0.60
2019-03-18T23:58:34.769Z,0.50
